sensor_id;sensor_type;location;lat;lon;timestamp;P1;durP1;ratioP1;P2;durP2;ratioP2
1603;SDS011;795;49.296;11.348;2022-12-26T00:01:41;6.20;;;5.00;;
1603;SDS011;795;49.296;11.348;2022-12-26T00:04:15;5.20;;;4.70;;
1603;SDS011;795;49.296;11.348;2022-12-26T00:07:03;5.60;;;4.63;;
1603;SDS011;795;49.296;11.348;2022-12-26T00:09:31;6.83;;;4.80;;
1603;SDS011;795;49.296;11.348;2022-12-26T00:11:58;6.57;;;5.70;;
1603;SDS011;795;49.296;11.348;2022-12-26T00:14:25;5.20;;;4.63;;
1603;SDS011;795;49.296;11.348;2022-12-26T00:16:52;7.60;;;6.57;;
1603;SDS011;795;49.296;11.348;2022-12-26T00:19:19;4.93;;;4.43;;
1603;SDS011;795;49.296;11.348;2022-12-26T00:21:46;8.60;;;4.73;;
1603;SDS011;795;49.296;11.348;2022-12-26T00:24:13;5.53;;;4.97;;
1603;SDS011;795;49.296;11.348;2022-12-26T00:26:40;4.70;;;4.20;;
1603;SDS011;795;49.296;11.348;2022-12-26T00:29:07;4.60;;;4.20;;
1603;SDS011;795;49.296;11.348;2022-12-26T00:31:34;4.27;;;3.87;;
1603;SDS011;795;49.296;11.348;2022-12-26T00:34:01;5.43;;;4.93;;
1603;SDS011;795;49.296;11.348;2022-12-26T00:36:29;9.23;;;5.87;;
1603;SDS011;795;49.296;11.348;2022-12-26T00:38:59;7.93;;;4.50;;
1603;SDS011;795;49.296;11.348;2022-12-26T00:41:29;4.73;;;4.03;;
1603;SDS011;795;49.296;11.348;2022-12-26T00:43:56;4.50;;;4.10;;
1603;SDS011;795;49.296;11.348;2022-12-26T00:46:24;8.43;;;4.40;;
1603;SDS011;795;49.296;11.348;2022-12-26T00:48:53;5.27;;;4.77;;
1603;SDS011;795;49.296;11.348;2022-12-26T00:51:20;5.07;;;4.67;;
1603;SDS011;795;49.296;11.348;2022-12-26T00:53:48;5.10;;;4.40;;
1603;SDS011;795;49.296;11.348;2022-12-26T00:56:15;3.83;;;3.53;;
1603;SDS011;795;49.296;11.348;2022-12-26T00:58:42;4.90;;;4.50;;
1603;SDS011;795;49.296;11.348;2022-12-26T01:01:14;4.57;;;4.17;;
1603;SDS011;795;49.296;11.348;2022-12-26T01:03:47;4.40;;;3.60;;
1603;SDS011;795;49.296;11.348;2022-12-26T01:06:17;4.07;;;3.30;;
1603;SDS011;795;49.296;11.348;2022-12-26T01:08:44;4.37;;;4.00;;
1603;SDS011;795;49.296;11.348;2022-12-26T01:11:12;4.63;;;3.63;;
1603;SDS011;795;49.296;11.348;2022-12-26T01:14:02;4.53;;;4.13;;
1603;SDS011;795;49.296;11.348;2022-12-26T01:16:30;4.50;;;3.90;;
1603;SDS011;795;49.296;11.348;2022-12-26T01:18:58;4.27;;;3.93;;
1603;SDS011;795;49.296;11.348;2022-12-26T01:21:24;3.93;;;3.60;;
1603;SDS011;795;49.296;11.348;2022-12-26T01:23:51;4.30;;;3.90;;
1603;SDS011;795;49.296;11.348;2022-12-26T01:26:18;4.23;;;3.83;;
1603;SDS011;795;49.296;11.348;2022-12-26T01:28:46;4.87;;;3.63;;
1603;SDS011;795;49.296;11.348;2022-12-26T01:31:18;4.37;;;4.00;;
1603;SDS011;795;49.296;11.348;2022-12-26T01:33:48;3.90;;;3.50;;
1603;SDS011;795;49.296;11.348;2022-12-26T01:36:15;3.63;;;3.33;;
1603;SDS011;795;49.296;11.348;2022-12-26T01:38:43;3.37;;;3.03;;
1603;SDS011;795;49.296;11.348;2022-12-26T01:41:11;2.83;;;2.60;;
1603;SDS011;795;49.296;11.348;2022-12-26T01:43:50;5.50;;;4.20;;
1603;SDS011;795;49.296;11.348;2022-12-26T01:46:24;5.80;;;4.20;;
1603;SDS011;795;49.296;11.348;2022-12-26T01:49:12;3.60;;;3.30;;
1603;SDS011;795;49.296;11.348;2022-12-26T01:52:02;3.47;;;3.10;;
1603;SDS011;795;49.296;11.348;2022-12-26T01:54:38;4.73;;;3.60;;
1603;SDS011;795;49.296;11.348;2022-12-26T01:57:21;4.17;;;3.77;;
1603;SDS011;795;49.296;11.348;2022-12-26T02:00:03;3.73;;;3.43;;
1603;SDS011;795;49.296;11.348;2022-12-26T02:02:31;3.90;;;3.60;;
1603;SDS011;795;49.296;11.348;2022-12-26T02:05:23;4.63;;;4.07;;
1603;SDS011;795;49.296;11.348;2022-12-26T02:08:05;5.17;;;4.60;;
1603;SDS011;795;49.296;11.348;2022-12-26T02:10:59;5.20;;;4.23;;
1603;SDS011;795;49.296;11.348;2022-12-26T02:13:50;4.03;;;3.27;;
1603;SDS011;795;49.296;11.348;2022-12-26T02:16:18;4.00;;;3.63;;
1603;SDS011;795;49.296;11.348;2022-12-26T02:18:46;4.50;;;4.07;;
1603;SDS011;795;49.296;11.348;2022-12-26T02:21:24;4.10;;;3.70;;
1603;SDS011;795;49.296;11.348;2022-12-26T02:27:41;5.00;;;4.10;;
1603;SDS011;795;49.296;11.348;2022-12-26T02:31:09;5.07;;;4.60;;
1603;SDS011;795;49.296;11.348;2022-12-26T02:34:27;4.60;;;4.20;;
1603;SDS011;795;49.296;11.348;2022-12-26T02:37:25;8.20;;;4.60;;
1603;SDS011;795;49.296;11.348;2022-12-26T02:43:46;5.00;;;4.53;;
1603;SDS011;795;49.296;11.348;2022-12-26T02:47:10;6.07;;;4.47;;
1603;SDS011;795;49.296;11.348;2022-12-26T02:53:45;4.87;;;4.00;;
1603;SDS011;795;49.296;11.348;2022-12-26T02:57:24;5.00;;;4.50;;
1603;SDS011;795;49.296;11.348;2022-12-26T03:00:27;7.00;;;4.60;;
1603;SDS011;795;49.296;11.348;2022-12-26T03:03:20;4.30;;;4.00;;
1603;SDS011;795;49.296;11.348;2022-12-26T03:06:17;4.70;;;4.30;;
1603;SDS011;795;49.296;11.348;2022-12-26T03:09:20;6.37;;;4.30;;
1603;SDS011;795;49.296;11.348;2022-12-26T03:15:30;4.80;;;4.27;;
1603;SDS011;795;49.296;11.348;2022-12-26T03:18:23;4.60;;;4.17;;
1603;SDS011;795;49.296;11.348;2022-12-26T03:21:16;5.43;;;4.17;;
1603;SDS011;795;49.296;11.348;2022-12-26T03:23:51;4.83;;;4.40;;
1603;SDS011;795;49.296;11.348;2022-12-26T03:26:25;4.40;;;4.07;;
1603;SDS011;795;49.296;11.348;2022-12-26T03:29:11;5.80;;;4.63;;
1603;SDS011;795;49.296;11.348;2022-12-26T03:32:06;6.90;;;4.57;;
1603;SDS011;795;49.296;11.348;2022-12-26T03:34:41;4.87;;;3.60;;
1603;SDS011;795;49.296;11.348;2022-12-26T03:40:37;4.10;;;3.73;;
1603;SDS011;795;49.296;11.348;2022-12-26T03:43:54;7.00;;;4.27;;
1603;SDS011;795;49.296;11.348;2022-12-26T03:47:27;7.07;;;4.50;;
1603;SDS011;795;49.296;11.348;2022-12-26T03:50:31;4.10;;;3.70;;
1603;SDS011;795;49.296;11.348;2022-12-26T03:53:47;4.80;;;4.07;;
1603;SDS011;795;49.296;11.348;2022-12-26T03:56:51;3.60;;;3.33;;
1603;SDS011;795;49.296;11.348;2022-12-26T03:59:50;5.03;;;3.60;;
1603;SDS011;795;49.296;11.348;2022-12-26T04:02:50;2.90;;;2.70;;
1603;SDS011;795;49.296;11.348;2022-12-26T04:05:44;3.77;;;3.47;;
1603;SDS011;795;49.296;11.348;2022-12-26T04:08:41;3.33;;;3.10;;
1603;SDS011;795;49.296;11.348;2022-12-26T04:11:51;2.70;;;2.50;;
1603;SDS011;795;49.296;11.348;2022-12-26T04:14:47;9.20;;;2.90;;
1603;SDS011;795;49.296;11.348;2022-12-26T04:21:11;5.50;;;2.93;;
1603;SDS011;795;49.296;11.348;2022-12-26T04:24:34;2.83;;;2.60;;
1603;SDS011;795;49.296;11.348;2022-12-26T04:27:31;9.20;;;3.27;;
1603;SDS011;795;49.296;11.348;2022-12-26T04:30:18;3.00;;;2.80;;
1603;SDS011;795;49.296;11.348;2022-12-26T04:33:05;3.20;;;3.00;;
1603;SDS011;795;49.296;11.348;2022-12-26T04:36:15;3.20;;;2.90;;
1603;SDS011;795;49.296;11.348;2022-12-26T04:39:17;3.00;;;2.70;;
1603;SDS011;795;49.296;11.348;2022-12-26T04:42:14;2.77;;;2.57;;
1603;SDS011;795;49.296;11.348;2022-12-26T04:45:03;3.00;;;2.80;;
1603;SDS011;795;49.296;11.348;2022-12-26T04:47:33;3.40;;;2.70;;
1603;SDS011;795;49.296;11.348;2022-12-26T04:50:03;2.83;;;2.63;;
1603;SDS011;795;49.296;11.348;2022-12-26T04:52:38;2.77;;;2.57;;
1603;SDS011;795;49.296;11.348;2022-12-26T04:55:27;2.30;;;2.10;;
1603;SDS011;795;49.296;11.348;2022-12-26T04:57:58;3.10;;;2.90;;
1603;SDS011;795;49.296;11.348;2022-12-26T05:00:26;3.30;;;3.00;;
1603;SDS011;795;49.296;11.348;2022-12-26T05:02:54;5.30;;;3.50;;
1603;SDS011;795;49.296;11.348;2022-12-26T05:05:45;3.63;;;2.83;;
1603;SDS011;795;49.296;11.348;2022-12-26T05:08:36;6.23;;;3.00;;
1603;SDS011;795;49.296;11.348;2022-12-26T05:11:27;4.40;;;3.47;;
1603;SDS011;795;49.296;11.348;2022-12-26T05:13:58;3.43;;;3.13;;
1603;SDS011;795;49.296;11.348;2022-12-26T05:16:26;4.00;;;3.10;;
1603;SDS011;795;49.296;11.348;2022-12-26T05:19:14;4.07;;;3.10;;
1603;SDS011;795;49.296;11.348;2022-12-26T05:22:01;5.03;;;3.03;;
1603;SDS011;795;49.296;11.348;2022-12-26T05:24:49;3.37;;;3.07;;
1603;SDS011;795;49.296;11.348;2022-12-26T05:27:37;3.13;;;2.80;;
1603;SDS011;795;49.296;11.348;2022-12-26T05:30:27;5.83;;;3.30;;
1603;SDS011;795;49.296;11.348;2022-12-26T05:32:54;3.67;;;3.10;;
1603;SDS011;795;49.296;11.348;2022-12-26T05:35:40;4.00;;;3.10;;
1603;SDS011;795;49.296;11.348;2022-12-26T05:38:08;2.83;;;2.63;;
1603;SDS011;795;49.296;11.348;2022-12-26T05:40:36;3.23;;;3.03;;
1603;SDS011;795;49.296;11.348;2022-12-26T05:43:03;3.77;;;3.33;;
1603;SDS011;795;49.296;11.348;2022-12-26T05:45:30;3.60;;;3.30;;
1603;SDS011;795;49.296;11.348;2022-12-26T05:48:00;4.10;;;3.10;;
1603;SDS011;795;49.296;11.348;2022-12-26T05:50:28;3.90;;;2.97;;
1603;SDS011;795;49.296;11.348;2022-12-26T05:52:55;3.13;;;2.83;;
1603;SDS011;795;49.296;11.348;2022-12-26T05:55:24;3.10;;;2.80;;
1603;SDS011;795;49.296;11.348;2022-12-26T05:57:52;4.67;;;3.70;;
1603;SDS011;795;49.296;11.348;2022-12-26T06:00:18;3.07;;;2.87;;
1603;SDS011;795;49.296;11.348;2022-12-26T06:02:46;3.07;;;2.80;;
1603;SDS011;795;49.296;11.348;2022-12-26T06:05:13;3.23;;;3.03;;
1603;SDS011;795;49.296;11.348;2022-12-26T06:07:40;10.00;;;2.93;;
1603;SDS011;795;49.296;11.348;2022-12-26T06:10:07;2.93;;;2.73;;
1603;SDS011;795;49.296;11.348;2022-12-26T06:12:35;3.40;;;3.20;;
1603;SDS011;795;49.296;11.348;2022-12-26T06:15:02;3.53;;;3.03;;
1603;SDS011;795;49.296;11.348;2022-12-26T06:17:30;3.57;;;2.93;;
1603;SDS011;795;49.296;11.348;2022-12-26T06:19:57;3.37;;;2.80;;
1603;SDS011;795;49.296;11.348;2022-12-26T06:22:24;3.37;;;3.17;;
1603;SDS011;795;49.296;11.348;2022-12-26T06:24:53;6.50;;;3.13;;
1603;SDS011;795;49.296;11.348;2022-12-26T06:27:20;3.60;;;3.10;;
1603;SDS011;795;49.296;11.348;2022-12-26T06:29:48;4.40;;;2.53;;
1603;SDS011;795;49.296;11.348;2022-12-26T06:32:15;3.10;;;2.90;;
1603;SDS011;795;49.296;11.348;2022-12-26T06:34:42;3.40;;;3.10;;
1603;SDS011;795;49.296;11.348;2022-12-26T06:37:09;3.40;;;3.10;;
1603;SDS011;795;49.296;11.348;2022-12-26T06:39:36;3.13;;;2.93;;
1603;SDS011;795;49.296;11.348;2022-12-26T06:42:02;3.30;;;3.00;;
1603;SDS011;795;49.296;11.348;2022-12-26T06:44:30;3.23;;;2.93;;
1603;SDS011;795;49.296;11.348;2022-12-26T06:46:57;3.20;;;2.97;;
1603;SDS011;795;49.296;11.348;2022-12-26T06:49:24;3.40;;;3.10;;
1603;SDS011;795;49.296;11.348;2022-12-26T06:51:57;6.33;;;3.23;;
1603;SDS011;795;49.296;11.348;2022-12-26T06:54:24;3.70;;;3.40;;
1603;SDS011;795;49.296;11.348;2022-12-26T06:56:51;6.03;;;3.83;;
1603;SDS011;795;49.296;11.348;2022-12-26T06:59:18;3.87;;;2.70;;
1603;SDS011;795;49.296;11.348;2022-12-26T07:01:45;3.43;;;3.03;;
1603;SDS011;795;49.296;11.348;2022-12-26T07:04:13;3.60;;;3.30;;
1603;SDS011;795;49.296;11.348;2022-12-26T07:06:40;4.17;;;3.73;;
1603;SDS011;795;49.296;11.348;2022-12-26T07:09:08;3.77;;;3.40;;
1603;SDS011;795;49.296;11.348;2022-12-26T07:11:42;3.33;;;3.10;;
1603;SDS011;795;49.296;11.348;2022-12-26T07:14:15;4.07;;;3.40;;
1603;SDS011;795;49.296;11.348;2022-12-26T07:16:43;3.60;;;3.27;;
1603;SDS011;795;49.296;11.348;2022-12-26T07:19:11;3.70;;;3.43;;
1603;SDS011;795;49.296;11.348;2022-12-26T07:21:41;3.67;;;3.37;;
1603;SDS011;795;49.296;11.348;2022-12-26T07:24:13;4.67;;;3.93;;
1603;SDS011;795;49.296;11.348;2022-12-26T07:26:45;3.53;;;3.23;;
1603;SDS011;795;49.296;11.348;2022-12-26T07:29:14;5.40;;;3.80;;
1603;SDS011;795;49.296;11.348;2022-12-26T07:31:41;2.93;;;2.70;;
1603;SDS011;795;49.296;11.348;2022-12-26T07:34:09;6.73;;;3.30;;
1603;SDS011;795;49.296;11.348;2022-12-26T07:36:36;3.97;;;3.57;;
1603;SDS011;795;49.296;11.348;2022-12-26T07:39:02;4.97;;;3.97;;
1603;SDS011;795;49.296;11.348;2022-12-26T07:41:29;3.77;;;3.47;;
1603;SDS011;795;49.296;11.348;2022-12-26T07:44:15;3.93;;;3.63;;
1603;SDS011;795;49.296;11.348;2022-12-26T07:46:42;3.80;;;3.43;;
1603;SDS011;795;49.296;11.348;2022-12-26T07:49:11;4.20;;;3.80;;
1603;SDS011;795;49.296;11.348;2022-12-26T07:51:39;4.10;;;3.67;;
1603;SDS011;795;49.296;11.348;2022-12-26T07:54:08;4.17;;;3.77;;
1603;SDS011;795;49.296;11.348;2022-12-26T07:56:37;4.27;;;3.97;;
1603;SDS011;795;49.296;11.348;2022-12-26T07:59:07;3.40;;;3.10;;
1603;SDS011;795;49.296;11.348;2022-12-26T08:01:43;3.03;;;2.83;;
1603;SDS011;795;49.296;11.348;2022-12-26T08:04:10;3.57;;;3.27;;
1603;SDS011;795;49.296;11.348;2022-12-26T08:06:38;3.30;;;2.90;;
1603;SDS011;795;49.296;11.348;2022-12-26T08:09:06;3.90;;;3.60;;
1603;SDS011;795;49.296;11.348;2022-12-26T08:11:36;4.60;;;3.10;;
1603;SDS011;795;49.296;11.348;2022-12-26T08:14:03;2.97;;;2.77;;
1603;SDS011;795;49.296;11.348;2022-12-26T08:16:30;3.70;;;3.40;;
1603;SDS011;795;49.296;11.348;2022-12-26T08:18:57;3.80;;;3.20;;
1603;SDS011;795;49.296;11.348;2022-12-26T08:21:28;3.43;;;3.07;;
1603;SDS011;795;49.296;11.348;2022-12-26T08:23:56;3.10;;;2.90;;
1603;SDS011;795;49.296;11.348;2022-12-26T08:26:23;2.83;;;2.63;;
1603;SDS011;795;49.296;11.348;2022-12-26T08:28:50;3.03;;;2.83;;
1603;SDS011;795;49.296;11.348;2022-12-26T08:31:18;3.27;;;3.07;;
1603;SDS011;795;49.296;11.348;2022-12-26T08:33:46;3.43;;;2.87;;
1603;SDS011;795;49.296;11.348;2022-12-26T08:36:14;3.77;;;3.40;;
1603;SDS011;795;49.296;11.348;2022-12-26T08:38:43;3.73;;;3.43;;
1603;SDS011;795;49.296;11.348;2022-12-26T08:41:11;2.97;;;2.77;;
1603;SDS011;795;49.296;11.348;2022-12-26T08:43:38;3.67;;;3.33;;
1603;SDS011;795;49.296;11.348;2022-12-26T08:46:25;3.27;;;2.97;;
1603;SDS011;795;49.296;11.348;2022-12-26T08:48:52;3.00;;;2.80;;
1603;SDS011;795;49.296;11.348;2022-12-26T08:51:20;7.53;;;3.87;;
1603;SDS011;795;49.296;11.348;2022-12-26T08:53:50;4.00;;;3.70;;
1603;SDS011;795;49.296;11.348;2022-12-26T08:56:22;4.03;;;3.20;;
1603;SDS011;795;49.296;11.348;2022-12-26T08:58:52;4.03;;;3.27;;
1603;SDS011;795;49.296;11.348;2022-12-26T09:03:58;4.40;;;4.00;;
1603;SDS011;795;49.296;11.348;2022-12-26T09:06:30;4.40;;;3.63;;
1603;SDS011;795;49.296;11.348;2022-12-26T09:09:02;4.20;;;3.80;;
1603;SDS011;795;49.296;11.348;2022-12-26T09:11:31;4.93;;;3.57;;
1603;SDS011;795;49.296;11.348;2022-12-26T09:13:59;3.60;;;3.40;;
1603;SDS011;795;49.296;11.348;2022-12-26T09:16:30;3.77;;;3.43;;
1603;SDS011;795;49.296;11.348;2022-12-26T09:19:11;4.87;;;4.37;;
1603;SDS011;795;49.296;11.348;2022-12-26T09:21:42;4.13;;;3.73;;
1603;SDS011;795;49.296;11.348;2022-12-26T09:24:11;5.20;;;4.00;;
1603;SDS011;795;49.296;11.348;2022-12-26T09:26:42;3.83;;;3.43;;
1603;SDS011;795;49.296;11.348;2022-12-26T09:29:10;4.13;;;3.80;;
1603;SDS011;795;49.296;11.348;2022-12-26T09:31:38;3.40;;;3.10;;
1603;SDS011;795;49.296;11.348;2022-12-26T09:34:06;4.03;;;3.63;;
1603;SDS011;795;49.296;11.348;2022-12-26T09:36:34;4.10;;;3.70;;
1603;SDS011;795;49.296;11.348;2022-12-26T09:39:03;3.80;;;3.50;;
1603;SDS011;795;49.296;11.348;2022-12-26T09:45:36;8.83;;;4.30;;
1603;SDS011;795;49.296;11.348;2022-12-26T09:48:03;4.27;;;3.80;;
1603;SDS011;795;49.296;11.348;2022-12-26T09:50:47;4.07;;;3.77;;
1603;SDS011;795;49.296;11.348;2022-12-26T09:53:18;9.60;;;3.80;;
1603;SDS011;795;49.296;11.348;2022-12-26T09:56:03;6.10;;;4.03;;
1603;SDS011;795;49.296;11.348;2022-12-26T09:58:58;6.10;;;5.03;;
1603;SDS011;795;49.296;11.348;2022-12-26T10:01:34;5.03;;;4.60;;
1603;SDS011;795;49.296;11.348;2022-12-26T10:04:12;5.33;;;4.27;;
1603;SDS011;795;49.296;11.348;2022-12-26T10:09:58;4.03;;;3.63;;
1603;SDS011;795;49.296;11.348;2022-12-26T10:13:43;5.93;;;4.53;;
1603;SDS011;795;49.296;11.348;2022-12-26T10:22:54;6.67;;;4.33;;
1603;SDS011;795;49.296;11.348;2022-12-26T10:26:10;5.20;;;4.63;;
1603;SDS011;795;49.296;11.348;2022-12-26T10:28:58;6.70;;;6.10;;
1603;SDS011;795;49.296;11.348;2022-12-26T10:31:55;4.47;;;4.07;;
1603;SDS011;795;49.296;11.348;2022-12-26T10:34:40;8.60;;;4.90;;
1603;SDS011;795;49.296;11.348;2022-12-26T10:43:12;10.03;;;9.03;;
1603;SDS011;795;49.296;11.348;2022-12-26T10:46:20;7.50;;;6.80;;
1603;SDS011;795;49.296;11.348;2022-12-26T10:49:36;7.70;;;6.70;;
1603;SDS011;795;49.296;11.348;2022-12-26T10:52:03;6.07;;;5.47;;
1603;SDS011;795;49.296;11.348;2022-12-26T10:54:31;7.60;;;5.93;;
1603;SDS011;795;49.296;11.348;2022-12-26T10:56:58;8.10;;;7.33;;
1603;SDS011;795;49.296;11.348;2022-12-26T10:59:43;7.70;;;6.90;;
1603;SDS011;795;49.296;11.348;2022-12-26T11:02:21;9.00;;;6.90;;
1603;SDS011;795;49.296;11.348;2022-12-26T11:04:57;8.30;;;7.40;;
1603;SDS011;795;49.296;11.348;2022-12-26T11:08:14;11.63;;;8.57;;
1603;SDS011;795;49.296;11.348;2022-12-26T11:11:22;8.23;;;7.43;;
1603;SDS011;795;49.296;11.348;2022-12-26T11:14:25;8.57;;;7.67;;
1603;SDS011;795;49.296;11.348;2022-12-26T11:17:05;7.23;;;6.60;;
1603;SDS011;795;49.296;11.348;2022-12-26T11:19:48;8.17;;;6.77;;
1603;SDS011;795;49.296;11.348;2022-12-26T11:22:43;8.47;;;7.67;;
1603;SDS011;795;49.296;11.348;2022-12-26T11:25:14;10.33;;;8.63;;
1603;SDS011;795;49.296;11.348;2022-12-26T11:27:54;10.30;;;8.30;;
1603;SDS011;795;49.296;11.348;2022-12-26T11:33:05;13.03;;;11.63;;
1603;SDS011;795;49.296;11.348;2022-12-26T11:36:33;12.33;;;11.13;;
1603;SDS011;795;49.296;11.348;2022-12-26T11:38:49;16.40;;;13.57;;
1603;SDS011;795;49.296;11.348;2022-12-26T11:41:43;7.80;;;7.07;;
1603;SDS011;795;49.296;11.348;2022-12-26T11:44:15;9.17;;;8.27;;
1603;SDS011;795;49.296;11.348;2022-12-26T11:58:00;9.90;;;7.67;;
1603;SDS011;795;49.296;11.348;2022-12-26T12:08:57;7.97;;;7.27;;
1603;SDS011;795;49.296;11.348;2022-12-26T12:14:57;7.40;;;6.70;;
1603;SDS011;795;49.296;11.348;2022-12-26T12:18:01;10.00;;;7.00;;
1603;SDS011;795;49.296;11.348;2022-12-26T12:27:29;8.90;;;8.03;;
1603;SDS011;795;49.296;11.348;2022-12-26T12:30:17;9.33;;;6.70;;
1603;SDS011;795;49.296;11.348;2022-12-26T12:33:17;9.73;;;7.13;;
1603;SDS011;795;49.296;11.348;2022-12-26T12:36:22;6.00;;;5.17;;
1603;SDS011;795;49.296;11.348;2022-12-26T12:39:20;7.73;;;6.57;;
1603;SDS011;795;49.296;11.348;2022-12-26T12:42:45;53.30;;;23.43;;
1603;SDS011;795;49.296;11.348;2022-12-26T12:52:25;9.90;;;8.90;;
1603;SDS011;795;49.296;11.348;2022-12-26T12:59:02;7.17;;;6.57;;
1603;SDS011;795;49.296;11.348;2022-12-26T13:02:14;8.70;;;6.37;;
1603;SDS011;795;49.296;11.348;2022-12-26T13:08:15;7.87;;;6.87;;
1603;SDS011;795;49.296;11.348;2022-12-26T13:11:04;8.03;;;5.50;;
1603;SDS011;795;49.296;11.348;2022-12-26T13:13:51;6.97;;;5.97;;
1603;SDS011;795;49.296;11.348;2022-12-26T13:16:29;7.13;;;6.47;;
1603;SDS011;795;49.296;11.348;2022-12-26T13:19:22;6.37;;;5.77;;
1603;SDS011;795;49.296;11.348;2022-12-26T13:22:01;7.20;;;5.80;;
1603;SDS011;795;49.296;11.348;2022-12-26T13:24:44;6.10;;;5.50;;
1603;SDS011;795;49.296;11.348;2022-12-26T13:27:24;6.57;;;5.87;;
1603;SDS011;795;49.296;11.348;2022-12-26T13:30:05;7.37;;;5.70;;
1603;SDS011;795;49.296;11.348;2022-12-26T13:32:43;6.03;;;5.43;;
1603;SDS011;795;49.296;11.348;2022-12-26T13:38:23;5.90;;;4.90;;
1603;SDS011;795;49.296;11.348;2022-12-26T13:41:19;8.00;;;5.80;;
1603;SDS011;795;49.296;11.348;2022-12-26T13:44:07;5.57;;;5.07;;
1603;SDS011;795;49.296;11.348;2022-12-26T13:46:54;6.10;;;5.43;;
1603;SDS011;795;49.296;11.348;2022-12-26T13:49:28;6.73;;;5.27;;
1603;SDS011;795;49.296;11.348;2022-12-26T14:00:23;6.23;;;5.23;;
1603;SDS011;795;49.296;11.348;2022-12-26T14:03:23;4.07;;;3.77;;
1603;SDS011;795;49.296;11.348;2022-12-26T14:09:11;3.97;;;3.67;;
1603;SDS011;795;49.296;11.348;2022-12-26T14:15:52;3.53;;;3.20;;
1603;SDS011;795;49.296;11.348;2022-12-26T14:18:50;3.80;;;3.50;;
1603;SDS011;795;49.296;11.348;2022-12-26T14:22:00;3.70;;;3.40;;
1603;SDS011;795;49.296;11.348;2022-12-26T14:25:06;3.67;;;2.73;;
1603;SDS011;795;49.296;11.348;2022-12-26T14:28:09;5.10;;;3.70;;
1603;SDS011;795;49.296;11.348;2022-12-26T14:30:56;3.50;;;3.20;;
1603;SDS011;795;49.296;11.348;2022-12-26T14:45:54;2.20;;;2.10;;
1603;SDS011;795;49.296;11.348;2022-12-26T14:50:50;2.40;;;2.20;;
1603;SDS011;795;49.296;11.348;2022-12-26T14:53:30;1.90;;;1.70;;
1603;SDS011;795;49.296;11.348;2022-12-26T14:56:02;2.40;;;1.90;;
1603;SDS011;795;49.296;11.348;2022-12-26T15:02:00;2.30;;;2.10;;
1603;SDS011;795;49.296;11.348;2022-12-26T15:07:51;2.33;;;2.10;;
1603;SDS011;795;49.296;11.348;2022-12-26T15:17:56;2.37;;;2.17;;
1603;SDS011;795;49.296;11.348;2022-12-26T15:24:25;2.23;;;2.10;;
1603;SDS011;795;49.296;11.348;2022-12-26T15:37:18;2.50;;;2.30;;
1603;SDS011;795;49.296;11.348;2022-12-26T15:40:57;8.80;;;7.90;;
1603;SDS011;795;49.296;11.348;2022-12-26T15:43:44;3.00;;;2.30;;
1603;SDS011;795;49.296;11.348;2022-12-26T15:53:30;2.83;;;2.00;;
1603;SDS011;795;49.296;11.348;2022-12-26T16:02:30;5.40;;;3.77;;
1603;SDS011;795;49.296;11.348;2022-12-26T16:05:12;3.00;;;2.07;;
1603;SDS011;795;49.296;11.348;2022-12-26T16:14:33;4.70;;;2.90;;
1603;SDS011;795;49.296;11.348;2022-12-26T16:17:08;2.33;;;2.13;;
1603;SDS011;795;49.296;11.348;2022-12-26T16:19:46;4.43;;;3.80;;
1603;SDS011;795;49.296;11.348;2022-12-26T16:22:27;3.13;;;2.83;;
1603;SDS011;795;49.296;11.348;2022-12-26T16:25:10;3.57;;;3.27;;
1603;SDS011;795;49.296;11.348;2022-12-26T16:27:53;4.10;;;3.70;;
1603;SDS011;795;49.296;11.348;2022-12-26T16:30:26;3.83;;;3.53;;
1603;SDS011;795;49.296;11.348;2022-12-26T16:33:03;3.20;;;2.80;;
1603;SDS011;795;49.296;11.348;2022-12-26T16:35:33;2.90;;;2.67;;
1603;SDS011;795;49.296;11.348;2022-12-26T16:38:05;2.23;;;2.03;;
1603;SDS011;795;49.296;11.348;2022-12-26T16:40:42;2.43;;;2.23;;
1603;SDS011;795;49.296;11.348;2022-12-26T16:45:57;3.57;;;2.33;;
1603;SDS011;795;49.296;11.348;2022-12-26T16:48:32;2.30;;;2.10;;
1603;SDS011;795;49.296;11.348;2022-12-26T16:51:03;3.13;;;2.93;;
1603;SDS011;795;49.296;11.348;2022-12-26T16:54:26;3.20;;;2.83;;
1603;SDS011;795;49.296;11.348;2022-12-26T16:57:08;2.00;;;1.80;;
1603;SDS011;795;49.296;11.348;2022-12-26T16:59:48;2.50;;;2.30;;
1603;SDS011;795;49.296;11.348;2022-12-26T17:02:25;2.60;;;2.20;;
1603;SDS011;795;49.296;11.348;2022-12-26T17:05:05;2.53;;;2.40;;
1603;SDS011;795;49.296;11.348;2022-12-26T17:07:59;2.13;;;1.93;;
1603;SDS011;795;49.296;11.348;2022-12-26T17:10:30;1.77;;;1.67;;
1603;SDS011;795;49.296;11.348;2022-12-26T17:13:03;1.83;;;1.73;;
1603;SDS011;795;49.296;11.348;2022-12-26T17:15:36;2.13;;;2.03;;
1603;SDS011;795;49.296;11.348;2022-12-26T17:26:37;2.80;;;2.60;;
1603;SDS011;795;49.296;11.348;2022-12-26T17:32:35;2.50;;;2.30;;
1603;SDS011;795;49.296;11.348;2022-12-26T17:35:18;2.77;;;2.50;;
1603;SDS011;795;49.296;11.348;2022-12-26T17:37:58;2.90;;;2.70;;
1603;SDS011;795;49.296;11.348;2022-12-26T17:40:33;2.90;;;2.70;;
1603;SDS011;795;49.296;11.348;2022-12-26T17:45:36;3.07;;;2.80;;
1603;SDS011;795;49.296;11.348;2022-12-26T17:48:12;3.63;;;3.07;;
1603;SDS011;795;49.296;11.348;2022-12-26T17:50:40;3.43;;;3.20;;
1603;SDS011;795;49.296;11.348;2022-12-26T17:53:35;4.30;;;3.90;;
1603;SDS011;795;49.296;11.348;2022-12-26T17:56:13;4.53;;;3.90;;
1603;SDS011;795;49.296;11.348;2022-12-26T17:58:48;5.63;;;3.77;;
1603;SDS011;795;49.296;11.348;2022-12-26T18:01:15;3.40;;;3.17;;
1603;SDS011;795;49.296;11.348;2022-12-26T18:03:46;5.40;;;3.63;;
1603;SDS011;795;49.296;11.348;2022-12-26T18:06:14;3.43;;;3.13;;
1603;SDS011;795;49.296;11.348;2022-12-26T18:08:42;6.70;;;5.27;;
1603;SDS011;795;49.296;11.348;2022-12-26T18:11:11;4.57;;;3.40;;
1603;SDS011;795;49.296;11.348;2022-12-26T18:13:40;8.53;;;6.20;;
1603;SDS011;795;49.296;11.348;2022-12-26T18:16:10;17.50;;;14.23;;
1603;SDS011;795;49.296;11.348;2022-12-26T18:18:45;11.30;;;7.73;;
1603;SDS011;795;49.296;11.348;2022-12-26T18:21:13;3.60;;;3.30;;
1603;SDS011;795;49.296;11.348;2022-12-26T18:23:41;3.50;;;3.20;;
1603;SDS011;795;49.296;11.348;2022-12-26T18:26:19;3.03;;;2.83;;
1603;SDS011;795;49.296;11.348;2022-12-26T18:28:54;4.13;;;3.40;;
1603;SDS011;795;49.296;11.348;2022-12-26T18:31:21;3.70;;;3.40;;
1603;SDS011;795;49.296;11.348;2022-12-26T18:33:51;6.87;;;4.67;;
1603;SDS011;795;49.296;11.348;2022-12-26T18:36:20;6.67;;;4.17;;
1603;SDS011;795;49.296;11.348;2022-12-26T18:38:56;4.87;;;4.00;;
1603;SDS011;795;49.296;11.348;2022-12-26T18:41:24;3.53;;;3.23;;
1603;SDS011;795;49.296;11.348;2022-12-26T18:43:53;4.90;;;4.40;;
1603;SDS011;795;49.296;11.348;2022-12-26T18:46:24;4.17;;;3.23;;
1603;SDS011;795;49.296;11.348;2022-12-26T18:48:54;5.23;;;3.93;;
1603;SDS011;795;49.296;11.348;2022-12-26T18:51:23;8.87;;;7.27;;
1603;SDS011;795;49.296;11.348;2022-12-26T18:53:53;14.37;;;11.33;;
1603;SDS011;795;49.296;11.348;2022-12-26T18:56:20;14.90;;;13.07;;
1603;SDS011;795;49.296;11.348;2022-12-26T18:58:49;8.63;;;6.67;;
1603;SDS011;795;49.296;11.348;2022-12-26T19:01:23;5.93;;;5.33;;
1603;SDS011;795;49.296;11.348;2022-12-26T19:03:51;5.70;;;5.07;;
1603;SDS011;795;49.296;11.348;2022-12-26T19:06:20;7.83;;;6.00;;
1603;SDS011;795;49.296;11.348;2022-12-26T19:08:52;5.20;;;4.80;;
1603;SDS011;795;49.296;11.348;2022-12-26T19:11:20;6.20;;;5.43;;
1603;SDS011;795;49.296;11.348;2022-12-26T19:13:47;5.80;;;5.30;;
1603;SDS011;795;49.296;11.348;2022-12-26T19:16:14;4.63;;;4.23;;
1603;SDS011;795;49.296;11.348;2022-12-26T19:18:41;4.90;;;4.50;;
1603;SDS011;795;49.296;11.348;2022-12-26T19:21:12;5.47;;;4.90;;
1603;SDS011;795;49.296;11.348;2022-12-26T19:23:41;8.20;;;5.37;;
1603;SDS011;795;49.296;11.348;2022-12-26T19:26:16;5.20;;;4.67;;
1603;SDS011;795;49.296;11.348;2022-12-26T19:28:48;5.93;;;5.37;;
1603;SDS011;795;49.296;11.348;2022-12-26T19:31:18;6.43;;;5.83;;
1603;SDS011;795;49.296;11.348;2022-12-26T19:33:48;4.83;;;4.43;;